Bridgeport, Washington
Current Conditions -  °F | °C
As of 10:53 AM on Thursday 30 Oct 2014 (Local Time) from KOMK Reporting Station
Light Rain Light Rain  
Wind Chill: 47°   Ceiling: 4200
Heat Index: 47°   Visibility: 7mi
Dew Point: 45°   Wind: 0mph
Humidity: 93%   Direction: NA
Pressure: 30.08"   Gusts: NA
Location:  48.01°N, 119.67°W
Report Text: KOMK 301753Z AUTO 00000KT 7SM -RA OVC042 08/07 A3008 RMK AO2 RAB22 SLP191 P0001 60001 T00830072 10089 20078 56008
Loading
Personal Weather Stations






























Interactive Weather Map
Tropical Storm Tracking
New forecast layout! Learn more

10-Day Weather Forecast

Advertisements
Track Severe Weather on mobile